sensor_id;sensor_type;location;lat;lon;timestamp;P1;durP1;ratioP1;P2;durP2;ratioP2
6495;SDS011;3281;47.658;9.166;2022-09-09T00:00:40;0.17;;;0.17;;
6495;SDS011;3281;47.658;9.166;2022-09-09T00:03:14;0.20;;;0.20;;
6495;SDS011;3281;47.658;9.166;2022-09-09T00:05:48;0.23;;;0.23;;
6495;SDS011;3281;47.658;9.166;2022-09-09T00:08:23;0.10;;;0.10;;
6495;SDS011;3281;47.658;9.166;2022-09-09T00:10:58;0.20;;;0.20;;
6495;SDS011;3281;47.658;9.166;2022-09-09T00:13:30;0.20;;;0.20;;
6495;SDS011;3281;47.658;9.166;2022-09-09T00:16:03;0.10;;;0.10;;
6495;SDS011;3281;47.658;9.166;2022-09-09T00:18:38;0.10;;;0.10;;
6495;SDS011;3281;47.658;9.166;2022-09-09T00:21:14;0.20;;;0.20;;
6495;SDS011;3281;47.658;9.166;2022-09-09T00:23:44;0.20;;;0.20;;
6495;SDS011;3281;47.658;9.166;2022-09-09T00:26:16;0.20;;;0.20;;
6495;SDS011;3281;47.658;9.166;2022-09-09T00:28:48;0.10;;;0.10;;
6495;SDS011;3281;47.658;9.166;2022-09-09T00:31:23;0.20;;;0.20;;
6495;SDS011;3281;47.658;9.166;2022-09-09T00:33:53;0.10;;;0.10;;
6495;SDS011;3281;47.658;9.166;2022-09-09T00:36:26;0.20;;;0.20;;
6495;SDS011;3281;47.658;9.166;2022-09-09T00:38:55;0.10;;;0.10;;
6495;SDS011;3281;47.658;9.166;2022-09-09T00:41:26;0.10;;;0.10;;
6495;SDS011;3281;47.658;9.166;2022-09-09T00:44:00;0.23;;;0.23;;
6495;SDS011;3281;47.658;9.166;2022-09-09T00:49:24;0.10;;;0.10;;
6495;SDS011;3281;47.658;9.166;2022-09-09T00:52:08;0.17;;;0.17;;
6495;SDS011;3281;47.658;9.166;2022-09-09T00:54:48;0.20;;;0.20;;
6495;SDS011;3281;47.658;9.166;2022-09-09T00:57:23;0.70;;;0.40;;
6495;SDS011;3281;47.658;9.166;2022-09-09T00:59:56;0.00;;;0.00;;
6495;SDS011;3281;47.658;9.166;2022-09-09T01:02:29;0.10;;;0.10;;
6495;SDS011;3281;47.658;9.166;2022-09-09T01:05:05;0.20;;;0.20;;
6495;SDS011;3281;47.658;9.166;2022-09-09T01:07:39;0.00;;;0.00;;
6495;SDS011;3281;47.658;9.166;2022-09-09T01:10:12;0.10;;;0.10;;
6495;SDS011;3281;47.658;9.166;2022-09-09T01:12:47;0.10;;;0.10;;
6495;SDS011;3281;47.658;9.166;2022-09-09T01:15:18;0.10;;;0.10;;
6495;SDS011;3281;47.658;9.166;2022-09-09T01:17:50;0.20;;;0.20;;
6495;SDS011;3281;47.658;9.166;2022-09-09T01:20:24;0.20;;;0.20;;
6495;SDS011;3281;47.658;9.166;2022-09-09T01:23:00;0.10;;;0.10;;
6495;SDS011;3281;47.658;9.166;2022-09-09T01:26:02;0.10;;;0.10;;
6495;SDS011;3281;47.658;9.166;2022-09-09T01:28:36;0.17;;;0.17;;
6495;SDS011;3281;47.658;9.166;2022-09-09T01:31:05;0.10;;;0.10;;
6495;SDS011;3281;47.658;9.166;2022-09-09T01:33:35;0.20;;;0.20;;
6495;SDS011;3281;47.658;9.166;2022-09-09T01:36:02;0.10;;;0.10;;
6495;SDS011;3281;47.658;9.166;2022-09-09T01:38:34;0.10;;;0.10;;
6495;SDS011;3281;47.658;9.166;2022-09-09T01:41:03;0.10;;;0.10;;
6495;SDS011;3281;47.658;9.166;2022-09-09T01:43:30;0.10;;;0.10;;
6495;SDS011;3281;47.658;9.166;2022-09-09T01:45:58;0.10;;;0.10;;
6495;SDS011;3281;47.658;9.166;2022-09-09T01:48:27;0.10;;;0.10;;
6495;SDS011;3281;47.658;9.166;2022-09-09T01:50:54;0.10;;;0.10;;
6495;SDS011;3281;47.658;9.166;2022-09-09T01:53:21;0.10;;;0.10;;
6495;SDS011;3281;47.658;9.166;2022-09-09T01:55:51;0.10;;;0.10;;
6495;SDS011;3281;47.658;9.166;2022-09-09T01:58:28;0.10;;;0.10;;
6495;SDS011;3281;47.658;9.166;2022-09-09T02:01:02;0.00;;;0.00;;
6495;SDS011;3281;47.658;9.166;2022-09-09T02:03:34;0.10;;;0.10;;
6495;SDS011;3281;47.658;9.166;2022-09-09T02:06:05;0.10;;;0.10;;
6495;SDS011;3281;47.658;9.166;2022-09-09T02:08:42;0.10;;;0.10;;
6495;SDS011;3281;47.658;9.166;2022-09-09T02:11:12;0.10;;;0.10;;
6495;SDS011;3281;47.658;9.166;2022-09-09T02:13:42;0.10;;;0.10;;
6495;SDS011;3281;47.658;9.166;2022-09-09T02:16:12;0.10;;;0.10;;
6495;SDS011;3281;47.658;9.166;2022-09-09T02:18:44;0.10;;;0.10;;
6495;SDS011;3281;47.658;9.166;2022-09-09T02:21:15;0.10;;;0.10;;
6495;SDS011;3281;47.658;9.166;2022-09-09T02:23:44;0.10;;;0.10;;
6495;SDS011;3281;47.658;9.166;2022-09-09T02:26:14;0.10;;;0.10;;
6495;SDS011;3281;47.658;9.166;2022-09-09T02:28:46;0.10;;;0.10;;
6495;SDS011;3281;47.658;9.166;2022-09-09T02:31:14;0.10;;;0.10;;
6495;SDS011;3281;47.658;9.166;2022-09-09T02:33:45;0.10;;;0.10;;
6495;SDS011;3281;47.658;9.166;2022-09-09T02:36:17;0.10;;;0.10;;
6495;SDS011;3281;47.658;9.166;2022-09-09T02:38:46;0.10;;;0.10;;
6495;SDS011;3281;47.658;9.166;2022-09-09T02:41:15;0.10;;;0.10;;
6495;SDS011;3281;47.658;9.166;2022-09-09T02:43:43;0.10;;;0.10;;
6495;SDS011;3281;47.658;9.166;2022-09-09T02:46:15;0.10;;;0.10;;
6495;SDS011;3281;47.658;9.166;2022-09-09T02:48:55;0.10;;;0.10;;
6495;SDS011;3281;47.658;9.166;2022-09-09T02:51:29;0.13;;;0.13;;
6495;SDS011;3281;47.658;9.166;2022-09-09T02:54:04;0.20;;;0.20;;
6495;SDS011;3281;47.658;9.166;2022-09-09T02:56:40;0.20;;;0.20;;
6495;SDS011;3281;47.658;9.166;2022-09-09T02:59:12;0.10;;;0.10;;
6495;SDS011;3281;47.658;9.166;2022-09-09T03:01:40;0.10;;;0.10;;
6495;SDS011;3281;47.658;9.166;2022-09-09T03:04:09;0.00;;;0.00;;
6495;SDS011;3281;47.658;9.166;2022-09-09T03:06:35;0.07;;;0.07;;
6495;SDS011;3281;47.658;9.166;2022-09-09T03:09:02;0.00;;;0.00;;
6495;SDS011;3281;47.658;9.166;2022-09-09T03:11:29;0.10;;;0.10;;
6495;SDS011;3281;47.658;9.166;2022-09-09T03:13:56;0.10;;;0.10;;
6495;SDS011;3281;47.658;9.166;2022-09-09T03:16:23;0.03;;;0.03;;
6495;SDS011;3281;47.658;9.166;2022-09-09T03:18:51;0.10;;;0.10;;
6495;SDS011;3281;47.658;9.166;2022-09-09T03:21:18;0.10;;;0.10;;
6495;SDS011;3281;47.658;9.166;2022-09-09T03:23:44;0.10;;;0.10;;
6495;SDS011;3281;47.658;9.166;2022-09-09T03:26:11;0.00;;;0.00;;
6495;SDS011;3281;47.658;9.166;2022-09-09T03:28:40;0.10;;;0.10;;
6495;SDS011;3281;47.658;9.166;2022-09-09T03:31:07;0.00;;;0.00;;
6495;SDS011;3281;47.658;9.166;2022-09-09T03:33:35;0.10;;;0.10;;
6495;SDS011;3281;47.658;9.166;2022-09-09T03:36:03;0.03;;;0.03;;
6495;SDS011;3281;47.658;9.166;2022-09-09T03:38:30;0.10;;;0.10;;
6495;SDS011;3281;47.658;9.166;2022-09-09T03:40:58;0.10;;;0.10;;
6495;SDS011;3281;47.658;9.166;2022-09-09T03:43:27;0.00;;;0.00;;
6495;SDS011;3281;47.658;9.166;2022-09-09T03:45:54;0.10;;;0.10;;
6495;SDS011;3281;47.658;9.166;2022-09-09T03:48:22;0.03;;;0.03;;
6495;SDS011;3281;47.658;9.166;2022-09-09T03:50:50;0.03;;;0.03;;
6495;SDS011;3281;47.658;9.166;2022-09-09T03:53:20;0.17;;;0.17;;
6495;SDS011;3281;47.658;9.166;2022-09-09T03:55:50;0.10;;;0.10;;
6495;SDS011;3281;47.658;9.166;2022-09-09T03:58:19;0.10;;;0.10;;
6495;SDS011;3281;47.658;9.166;2022-09-09T04:00:52;0.00;;;0.00;;
6495;SDS011;3281;47.658;9.166;2022-09-09T04:03:20;0.10;;;0.10;;
6495;SDS011;3281;47.658;9.166;2022-09-09T04:05:48;0.00;;;0.00;;
6495;SDS011;3281;47.658;9.166;2022-09-09T04:08:15;0.00;;;0.00;;
6495;SDS011;3281;47.658;9.166;2022-09-09T04:10:43;0.10;;;0.10;;
6495;SDS011;3281;47.658;9.166;2022-09-09T04:13:10;0.10;;;0.10;;
6495;SDS011;3281;47.658;9.166;2022-09-09T04:15:39;0.10;;;0.10;;
6495;SDS011;3281;47.658;9.166;2022-09-09T04:18:06;0.10;;;0.10;;
6495;SDS011;3281;47.658;9.166;2022-09-09T04:20:33;0.20;;;0.20;;
6495;SDS011;3281;47.658;9.166;2022-09-09T04:23:00;0.10;;;0.10;;
6495;SDS011;3281;47.658;9.166;2022-09-09T04:25:26;0.10;;;0.10;;
6495;SDS011;3281;47.658;9.166;2022-09-09T04:27:55;0.10;;;0.10;;
6495;SDS011;3281;47.658;9.166;2022-09-09T04:30:22;0.10;;;0.10;;
6495;SDS011;3281;47.658;9.166;2022-09-09T04:32:49;0.43;;;0.43;;
6495;SDS011;3281;47.658;9.166;2022-09-09T04:35:16;0.17;;;0.17;;
6495;SDS011;3281;47.658;9.166;2022-09-09T04:37:45;0.10;;;0.10;;
6495;SDS011;3281;47.658;9.166;2022-09-09T04:40:12;0.10;;;0.10;;
6495;SDS011;3281;47.658;9.166;2022-09-09T04:42:40;0.10;;;0.10;;
6495;SDS011;3281;47.658;9.166;2022-09-09T04:45:10;0.53;;;0.53;;
6495;SDS011;3281;47.658;9.166;2022-09-09T04:47:38;0.10;;;0.10;;
6495;SDS011;3281;47.658;9.166;2022-09-09T04:50:06;0.10;;;0.10;;
6495;SDS011;3281;47.658;9.166;2022-09-09T04:52:33;0.10;;;0.10;;
6495;SDS011;3281;47.658;9.166;2022-09-09T04:55:00;0.10;;;0.10;;
6495;SDS011;3281;47.658;9.166;2022-09-09T04:57:27;0.20;;;0.20;;
6495;SDS011;3281;47.658;9.166;2022-09-09T04:59:56;0.10;;;0.10;;
6495;SDS011;3281;47.658;9.166;2022-09-09T05:02:26;0.17;;;0.17;;
6495;SDS011;3281;47.658;9.166;2022-09-09T05:04:53;0.20;;;0.20;;
6495;SDS011;3281;47.658;9.166;2022-09-09T05:07:20;0.17;;;0.17;;
6495;SDS011;3281;47.658;9.166;2022-09-09T05:09:46;0.10;;;0.10;;
6495;SDS011;3281;47.658;9.166;2022-09-09T05:12:14;0.10;;;0.10;;
6495;SDS011;3281;47.658;9.166;2022-09-09T05:14:41;0.10;;;0.10;;
6495;SDS011;3281;47.658;9.166;2022-09-09T05:17:09;0.20;;;0.20;;
6495;SDS011;3281;47.658;9.166;2022-09-09T05:19:37;0.10;;;0.10;;
6495;SDS011;3281;47.658;9.166;2022-09-09T05:22:04;0.10;;;0.10;;
6495;SDS011;3281;47.658;9.166;2022-09-09T05:24:30;0.10;;;0.10;;
6495;SDS011;3281;47.658;9.166;2022-09-09T05:26:58;0.10;;;0.10;;
6495;SDS011;3281;47.658;9.166;2022-09-09T05:29:27;0.10;;;0.10;;
6495;SDS011;3281;47.658;9.166;2022-09-09T05:31:53;0.10;;;0.10;;
6495;SDS011;3281;47.658;9.166;2022-09-09T05:34:20;0.10;;;0.10;;
6495;SDS011;3281;47.658;9.166;2022-09-09T05:36:48;0.10;;;0.10;;
6495;SDS011;3281;47.658;9.166;2022-09-09T05:39:16;0.10;;;0.10;;
6495;SDS011;3281;47.658;9.166;2022-09-09T05:41:43;0.10;;;0.10;;
6495;SDS011;3281;47.658;9.166;2022-09-09T05:44:10;0.10;;;0.10;;
6495;SDS011;3281;47.658;9.166;2022-09-09T05:46:36;0.10;;;0.10;;
6495;SDS011;3281;47.658;9.166;2022-09-09T05:49:03;0.00;;;0.00;;
6495;SDS011;3281;47.658;9.166;2022-09-09T05:51:31;0.00;;;0.00;;
6495;SDS011;3281;47.658;9.166;2022-09-09T05:53:59;0.10;;;0.10;;
6495;SDS011;3281;47.658;9.166;2022-09-09T05:56:26;0.10;;;0.10;;
6495;SDS011;3281;47.658;9.166;2022-09-09T05:58:54;0.10;;;0.10;;
6495;SDS011;3281;47.658;9.166;2022-09-09T06:01:22;0.10;;;0.10;;
6495;SDS011;3281;47.658;9.166;2022-09-09T06:03:51;0.10;;;0.10;;
6495;SDS011;3281;47.658;9.166;2022-09-09T06:06:19;0.03;;;0.03;;
6495;SDS011;3281;47.658;9.166;2022-09-09T06:08:47;0.00;;;0.00;;
6495;SDS011;3281;47.658;9.166;2022-09-09T06:11:18;0.00;;;0.00;;
6495;SDS011;3281;47.658;9.166;2022-09-09T06:13:45;0.10;;;0.10;;
6495;SDS011;3281;47.658;9.166;2022-09-09T06:16:13;0.07;;;0.07;;
6495;SDS011;3281;47.658;9.166;2022-09-09T06:18:43;0.10;;;0.10;;
6495;SDS011;3281;47.658;9.166;2022-09-09T06:21:11;0.10;;;0.10;;
6495;SDS011;3281;47.658;9.166;2022-09-09T06:23:41;0.10;;;0.10;;
6495;SDS011;3281;47.658;9.166;2022-09-09T06:26:10;0.10;;;0.10;;
6495;SDS011;3281;47.658;9.166;2022-09-09T06:28:40;0.20;;;0.20;;
6495;SDS011;3281;47.658;9.166;2022-09-09T06:31:08;0.10;;;0.10;;
6495;SDS011;3281;47.658;9.166;2022-09-09T06:33:37;0.10;;;0.10;;
6495;SDS011;3281;47.658;9.166;2022-09-09T06:36:06;0.00;;;0.00;;
6495;SDS011;3281;47.658;9.166;2022-09-09T06:38:36;0.03;;;0.03;;
6495;SDS011;3281;47.658;9.166;2022-09-09T06:41:02;0.00;;;0.00;;
6495;SDS011;3281;47.658;9.166;2022-09-09T06:43:30;0.00;;;0.00;;
6495;SDS011;3281;47.658;9.166;2022-09-09T06:45:59;0.20;;;0.20;;
6495;SDS011;3281;47.658;9.166;2022-09-09T06:48:27;0.00;;;0.00;;
6495;SDS011;3281;47.658;9.166;2022-09-09T06:51:00;0.03;;;0.03;;
6495;SDS011;3281;47.658;9.166;2022-09-09T06:53:28;0.13;;;0.13;;
6495;SDS011;3281;47.658;9.166;2022-09-09T06:55:56;0.10;;;0.10;;
6495;SDS011;3281;47.658;9.166;2022-09-09T06:58:22;0.03;;;0.03;;
6495;SDS011;3281;47.658;9.166;2022-09-09T07:00:49;0.00;;;0.00;;
6495;SDS011;3281;47.658;9.166;2022-09-09T07:03:17;0.10;;;0.10;;
6495;SDS011;3281;47.658;9.166;2022-09-09T07:05:53;0.00;;;0.00;;
6495;SDS011;3281;47.658;9.166;2022-09-09T07:08:21;0.30;;;0.30;;
6495;SDS011;3281;47.658;9.166;2022-09-09T07:10:47;0.00;;;0.00;;
6495;SDS011;3281;47.658;9.166;2022-09-09T07:13:14;0.00;;;0.00;;
6495;SDS011;3281;47.658;9.166;2022-09-09T07:15:41;0.40;;;0.40;;
6495;SDS011;3281;47.658;9.166;2022-09-09T07:18:08;0.00;;;0.00;;
6495;SDS011;3281;47.658;9.166;2022-09-09T07:20:36;0.00;;;0.00;;
6495;SDS011;3281;47.658;9.166;2022-09-09T07:23:03;0.20;;;0.20;;
6495;SDS011;3281;47.658;9.166;2022-09-09T07:25:30;0.10;;;0.10;;
6495;SDS011;3281;47.658;9.166;2022-09-09T07:27:56;0.33;;;0.33;;
6495;SDS011;3281;47.658;9.166;2022-09-09T07:30:23;0.10;;;0.10;;
6495;SDS011;3281;47.658;9.166;2022-09-09T07:32:50;0.10;;;0.10;;
6495;SDS011;3281;47.658;9.166;2022-09-09T07:35:17;0.10;;;0.10;;
6495;SDS011;3281;47.658;9.166;2022-09-09T07:37:45;0.13;;;0.13;;
6495;SDS011;3281;47.658;9.166;2022-09-09T07:40:12;0.00;;;0.00;;
6495;SDS011;3281;47.658;9.166;2022-09-09T07:42:38;0.00;;;0.00;;
6495;SDS011;3281;47.658;9.166;2022-09-09T07:45:05;0.10;;;0.10;;
6495;SDS011;3281;47.658;9.166;2022-09-09T07:47:32;0.00;;;0.00;;
6495;SDS011;3281;47.658;9.166;2022-09-09T07:49:59;0.27;;;0.27;;
6495;SDS011;3281;47.658;9.166;2022-09-09T07:52:26;0.10;;;0.10;;
6495;SDS011;3281;47.658;9.166;2022-09-09T07:54:54;0.10;;;0.10;;
6495;SDS011;3281;47.658;9.166;2022-09-09T07:57:22;0.10;;;0.10;;
6495;SDS011;3281;47.658;9.166;2022-09-09T07:59:48;0.10;;;0.10;;
6495;SDS011;3281;47.658;9.166;2022-09-09T08:02:15;0.30;;;0.30;;
6495;SDS011;3281;47.658;9.166;2022-09-09T08:04:42;0.10;;;0.10;;
6495;SDS011;3281;47.658;9.166;2022-09-09T08:07:09;0.10;;;0.10;;
6495;SDS011;3281;47.658;9.166;2022-09-09T08:09:36;0.13;;;0.13;;
6495;SDS011;3281;47.658;9.166;2022-09-09T08:12:04;0.20;;;0.20;;
6495;SDS011;3281;47.658;9.166;2022-09-09T08:14:31;0.30;;;0.30;;
6495;SDS011;3281;47.658;9.166;2022-09-09T08:16:58;0.10;;;0.10;;
6495;SDS011;3281;47.658;9.166;2022-09-09T08:19:25;0.10;;;0.10;;
6495;SDS011;3281;47.658;9.166;2022-09-09T08:21:54;0.20;;;0.20;;
6495;SDS011;3281;47.658;9.166;2022-09-09T08:24:21;0.00;;;0.00;;
6495;SDS011;3281;47.658;9.166;2022-09-09T08:26:48;0.00;;;0.00;;
6495;SDS011;3281;47.658;9.166;2022-09-09T08:29:16;0.00;;;0.00;;
6495;SDS011;3281;47.658;9.166;2022-09-09T08:31:44;0.10;;;0.10;;
6495;SDS011;3281;47.658;9.166;2022-09-09T08:34:12;0.00;;;0.00;;
6495;SDS011;3281;47.658;9.166;2022-09-09T08:36:40;0.00;;;0.00;;
6495;SDS011;3281;47.658;9.166;2022-09-09T08:39:09;0.00;;;0.00;;
6495;SDS011;3281;47.658;9.166;2022-09-09T08:41:40;0.20;;;0.20;;
6495;SDS011;3281;47.658;9.166;2022-09-09T08:44:23;0.10;;;0.10;;
6495;SDS011;3281;47.658;9.166;2022-09-09T08:46:58;0.20;;;0.20;;
6495;SDS011;3281;47.658;9.166;2022-09-09T08:49:37;0.00;;;0.00;;
6495;SDS011;3281;47.658;9.166;2022-09-09T08:52:15;0.10;;;0.10;;
6495;SDS011;3281;47.658;9.166;2022-09-09T08:54:45;0.40;;;0.40;;
6495;SDS011;3281;47.658;9.166;2022-09-09T08:57:14;0.37;;;0.37;;
6495;SDS011;3281;47.658;9.166;2022-09-09T08:59:47;0.23;;;0.23;;
6495;SDS011;3281;47.658;9.166;2022-09-09T09:02:17;2.40;;;2.30;;
6495;SDS011;3281;47.658;9.166;2022-09-09T09:04:54;2.13;;;2.03;;
6495;SDS011;3281;47.658;9.166;2022-09-09T09:07:30;1.27;;;1.27;;
6495;SDS011;3281;47.658;9.166;2022-09-09T09:10:09;1.47;;;1.47;;
6495;SDS011;3281;47.658;9.166;2022-09-09T09:12:42;0.93;;;0.93;;
6495;SDS011;3281;47.658;9.166;2022-09-09T09:15:21;1.13;;;0.93;;
6495;SDS011;3281;47.658;9.166;2022-09-09T09:17:50;1.13;;;1.13;;
6495;SDS011;3281;47.658;9.166;2022-09-09T09:20:18;2.93;;;1.43;;
6495;SDS011;3281;47.658;9.166;2022-09-09T09:22:55;0.50;;;0.50;;
6495;SDS011;3281;47.658;9.166;2022-09-09T09:25:27;0.90;;;0.90;;
6495;SDS011;3281;47.658;9.166;2022-09-09T09:28:00;0.90;;;0.90;;
6495;SDS011;3281;47.658;9.166;2022-09-09T09:30:34;0.90;;;0.90;;
6495;SDS011;3281;47.658;9.166;2022-09-09T09:33:08;1.00;;;1.00;;
6495;SDS011;3281;47.658;9.166;2022-09-09T09:35:41;1.10;;;1.10;;
6495;SDS011;3281;47.658;9.166;2022-09-09T09:38:11;1.07;;;1.07;;
6495;SDS011;3281;47.658;9.166;2022-09-09T09:40:48;1.00;;;1.00;;
6495;SDS011;3281;47.658;9.166;2022-09-09T09:43:19;2.30;;;2.30;;
6495;SDS011;3281;47.658;9.166;2022-09-09T09:45:51;0.67;;;0.67;;
6495;SDS011;3281;47.658;9.166;2022-09-09T09:48:17;1.30;;;1.20;;
6495;SDS011;3281;47.658;9.166;2022-09-09T09:50:48;1.03;;;1.03;;
6495;SDS011;3281;47.658;9.166;2022-09-09T09:53:18;0.47;;;0.47;;
6495;SDS011;3281;47.658;9.166;2022-09-09T09:55:50;0.40;;;0.40;;
6495;SDS011;3281;47.658;9.166;2022-09-09T09:58:20;3.40;;;0.70;;
6495;SDS011;3281;47.658;9.166;2022-09-09T10:00:47;0.87;;;0.87;;
6495;SDS011;3281;47.658;9.166;2022-09-09T10:03:24;2.77;;;1.10;;
6495;SDS011;3281;47.658;9.166;2022-09-09T10:05:52;1.10;;;1.10;;
6495;SDS011;3281;47.658;9.166;2022-09-09T10:08:21;0.70;;;0.70;;
6495;SDS011;3281;47.658;9.166;2022-09-09T10:13:53;0.50;;;0.50;;
6495;SDS011;3281;47.658;9.166;2022-09-09T10:16:32;0.90;;;0.90;;
6495;SDS011;3281;47.658;9.166;2022-09-09T10:19:12;0.90;;;0.90;;
6495;SDS011;3281;47.658;9.166;2022-09-09T10:21:48;0.80;;;0.80;;
6495;SDS011;3281;47.658;9.166;2022-09-09T10:24:39;1.07;;;1.07;;
6495;SDS011;3281;47.658;9.166;2022-09-09T10:27:29;0.50;;;0.50;;
6495;SDS011;3281;47.658;9.166;2022-09-09T10:30:07;1.13;;;1.13;;
6495;SDS011;3281;47.658;9.166;2022-09-09T10:32:41;0.97;;;0.97;;
6495;SDS011;3281;47.658;9.166;2022-09-09T10:35:22;0.80;;;0.80;;
6495;SDS011;3281;47.658;9.166;2022-09-09T10:40:42;0.90;;;0.90;;
6495;SDS011;3281;47.658;9.166;2022-09-09T10:43:19;0.43;;;0.43;;
6495;SDS011;3281;47.658;9.166;2022-09-09T10:45:58;0.20;;;0.20;;
6495;SDS011;3281;47.658;9.166;2022-09-09T10:48:35;0.30;;;0.30;;
6495;SDS011;3281;47.658;9.166;2022-09-09T10:51:15;0.43;;;0.43;;
6495;SDS011;3281;47.658;9.166;2022-09-09T10:53:51;0.37;;;0.37;;
6495;SDS011;3281;47.658;9.166;2022-09-09T10:56:28;0.93;;;0.93;;
6495;SDS011;3281;47.658;9.166;2022-09-09T10:58:56;0.37;;;0.37;;
6495;SDS011;3281;47.658;9.166;2022-09-09T11:01:27;0.70;;;0.70;;
6495;SDS011;3281;47.658;9.166;2022-09-09T11:03:57;0.70;;;0.70;;
6495;SDS011;3281;47.658;9.166;2022-09-09T11:06:34;0.93;;;0.93;;
6495;SDS011;3281;47.658;9.166;2022-09-09T11:09:05;0.50;;;0.50;;
6495;SDS011;3281;47.658;9.166;2022-09-09T11:11:42;0.37;;;0.37;;
6495;SDS011;3281;47.658;9.166;2022-09-09T11:14:15;1.03;;;1.03;;
6495;SDS011;3281;47.658;9.166;2022-09-09T11:16:48;0.77;;;0.77;;
6495;SDS011;3281;47.658;9.166;2022-09-09T11:19:18;0.60;;;0.60;;
6495;SDS011;3281;47.658;9.166;2022-09-09T11:21:52;0.87;;;0.80;;
6495;SDS011;3281;47.658;9.166;2022-09-09T11:24:23;0.60;;;0.60;;
6495;SDS011;3281;47.658;9.166;2022-09-09T11:26:55;0.73;;;0.73;;
6495;SDS011;3281;47.658;9.166;2022-09-09T11:35:47;0.90;;;0.90;;
6495;SDS011;3281;47.658;9.166;2022-09-09T11:38:27;0.53;;;0.53;;
6495;SDS011;3281;47.658;9.166;2022-09-09T11:40:56;0.43;;;0.43;;
6495;SDS011;3281;47.658;9.166;2022-09-09T11:43:26;0.77;;;0.77;;
6495;SDS011;3281;47.658;9.166;2022-09-09T11:45:57;0.80;;;0.80;;
6495;SDS011;3281;47.658;9.166;2022-09-09T11:48:29;0.57;;;0.57;;
6495;SDS011;3281;47.658;9.166;2022-09-09T11:51:00;0.30;;;0.30;;
6495;SDS011;3281;47.658;9.166;2022-09-09T11:53:31;0.67;;;0.67;;
6495;SDS011;3281;47.658;9.166;2022-09-09T11:58:54;0.40;;;0.40;;
6495;SDS011;3281;47.658;9.166;2022-09-09T12:01:36;0.83;;;0.83;;
6495;SDS011;3281;47.658;9.166;2022-09-09T12:07:02;0.33;;;0.33;;
6495;SDS011;3281;47.658;9.166;2022-09-09T12:09:44;0.67;;;0.67;;
6495;SDS011;3281;47.658;9.166;2022-09-09T12:12:24;0.20;;;0.20;;
6495;SDS011;3281;47.658;9.166;2022-09-09T12:14:57;0.20;;;0.20;;
6495;SDS011;3281;47.658;9.166;2022-09-09T12:17:26;0.30;;;0.30;;
6495;SDS011;3281;47.658;9.166;2022-09-09T12:20:02;0.20;;;0.20;;
6495;SDS011;3281;47.658;9.166;2022-09-09T12:22:35;0.33;;;0.33;;
6495;SDS011;3281;47.658;9.166;2022-09-09T12:25:14;0.20;;;0.20;;
6495;SDS011;3281;47.658;9.166;2022-09-09T12:27:49;0.13;;;0.13;;
6495;SDS011;3281;47.658;9.166;2022-09-09T12:30:28;0.20;;;0.20;;
6495;SDS011;3281;47.658;9.166;2022-09-09T12:33:01;0.20;;;0.20;;
6495;SDS011;3281;47.658;9.166;2022-09-09T12:35:28;0.10;;;0.10;;
6495;SDS011;3281;47.658;9.166;2022-09-09T12:37:57;0.20;;;0.20;;
6495;SDS011;3281;47.658;9.166;2022-09-09T12:40:29;0.10;;;0.10;;
6495;SDS011;3281;47.658;9.166;2022-09-09T12:43:00;2.87;;;0.47;;
6495;SDS011;3281;47.658;9.166;2022-09-09T12:45:28;0.20;;;0.20;;
6495;SDS011;3281;47.658;9.166;2022-09-09T12:47:57;0.20;;;0.20;;
6495;SDS011;3281;47.658;9.166;2022-09-09T12:50:29;0.13;;;0.13;;
6495;SDS011;3281;47.658;9.166;2022-09-09T12:52:57;0.20;;;0.20;;
6495;SDS011;3281;47.658;9.166;2022-09-09T12:55:30;0.23;;;0.23;;
6495;SDS011;3281;47.658;9.166;2022-09-09T12:57:59;0.17;;;0.17;;
6495;SDS011;3281;47.658;9.166;2022-09-09T13:00:29;0.10;;;0.10;;
6495;SDS011;3281;47.658;9.166;2022-09-09T13:02:56;0.10;;;0.10;;
6495;SDS011;3281;47.658;9.166;2022-09-09T13:05:26;0.20;;;0.20;;
6495;SDS011;3281;47.658;9.166;2022-09-09T13:08:00;0.20;;;0.20;;
6495;SDS011;3281;47.658;9.166;2022-09-09T13:10:30;0.10;;;0.10;;
6495;SDS011;3281;47.658;9.166;2022-09-09T13:12:59;0.40;;;0.40;;
6495;SDS011;3281;47.658;9.166;2022-09-09T13:15:27;0.10;;;0.10;;
6495;SDS011;3281;47.658;9.166;2022-09-09T13:17:56;0.43;;;0.43;;
6495;SDS011;3281;47.658;9.166;2022-09-09T13:20:25;0.30;;;0.30;;
6495;SDS011;3281;47.658;9.166;2022-09-09T13:22:53;0.13;;;0.13;;
6495;SDS011;3281;47.658;9.166;2022-09-09T13:25:22;0.50;;;0.50;;
6495;SDS011;3281;47.658;9.166;2022-09-09T13:27:53;0.73;;;0.73;;
6495;SDS011;3281;47.658;9.166;2022-09-09T13:30:23;0.47;;;0.47;;
6495;SDS011;3281;47.658;9.166;2022-09-09T13:33:02;0.17;;;0.17;;
6495;SDS011;3281;47.658;9.166;2022-09-09T13:35:32;0.20;;;0.20;;
6495;SDS011;3281;47.658;9.166;2022-09-09T13:37:59;0.40;;;0.40;;
6495;SDS011;3281;47.658;9.166;2022-09-09T13:40:34;0.20;;;0.20;;
6495;SDS011;3281;47.658;9.166;2022-09-09T13:43:03;0.47;;;0.47;;
6495;SDS011;3281;47.658;9.166;2022-09-09T13:45:30;0.10;;;0.10;;
6495;SDS011;3281;47.658;9.166;2022-09-09T13:47:59;0.20;;;0.20;;
6495;SDS011;3281;47.658;9.166;2022-09-09T13:50:35;0.40;;;0.40;;
6495;SDS011;3281;47.658;9.166;2022-09-09T13:53:02;0.37;;;0.37;;
6495;SDS011;3281;47.658;9.166;2022-09-09T13:55:29;0.30;;;0.30;;
6495;SDS011;3281;47.658;9.166;2022-09-09T13:57:56;0.50;;;0.50;;
6495;SDS011;3281;47.658;9.166;2022-09-09T14:00:28;0.30;;;0.30;;
6495;SDS011;3281;47.658;9.166;2022-09-09T14:02:56;0.47;;;0.47;;
6495;SDS011;3281;47.658;9.166;2022-09-09T14:05:23;0.33;;;0.33;;
6495;SDS011;3281;47.658;9.166;2022-09-09T14:07:50;0.33;;;0.33;;
6495;SDS011;3281;47.658;9.166;2022-09-09T14:10:16;0.40;;;0.40;;
6495;SDS011;3281;47.658;9.166;2022-09-09T14:12:43;0.07;;;0.07;;
6495;SDS011;3281;47.658;9.166;2022-09-09T14:15:11;0.10;;;0.10;;
6495;SDS011;3281;47.658;9.166;2022-09-09T14:17:40;0.40;;;0.40;;
6495;SDS011;3281;47.658;9.166;2022-09-09T14:20:08;0.40;;;0.40;;
6495;SDS011;3281;47.658;9.166;2022-09-09T14:22:37;0.40;;;0.40;;
6495;SDS011;3281;47.658;9.166;2022-09-09T14:25:06;0.63;;;0.63;;
6495;SDS011;3281;47.658;9.166;2022-09-09T14:27:33;0.20;;;0.20;;
6495;SDS011;3281;47.658;9.166;2022-09-09T14:30:00;0.33;;;0.33;;
6495;SDS011;3281;47.658;9.166;2022-09-09T14:32:27;0.10;;;0.10;;
6495;SDS011;3281;47.658;9.166;2022-09-09T14:34:55;0.27;;;0.27;;
6495;SDS011;3281;47.658;9.166;2022-09-09T14:37:22;0.10;;;0.10;;
6495;SDS011;3281;47.658;9.166;2022-09-09T14:39:49;2.17;;;0.27;;
6495;SDS011;3281;47.658;9.166;2022-09-09T14:42:16;0.63;;;0.27;;
6495;SDS011;3281;47.658;9.166;2022-09-09T14:44:43;0.20;;;0.20;;
6495;SDS011;3281;47.658;9.166;2022-09-09T14:47:10;0.10;;;0.10;;
6495;SDS011;3281;47.658;9.166;2022-09-09T14:49:37;0.20;;;0.20;;
6495;SDS011;3281;47.658;9.166;2022-09-09T14:52:05;0.03;;;0.03;;
6495;SDS011;3281;47.658;9.166;2022-09-09T14:54:34;0.00;;;0.00;;
6495;SDS011;3281;47.658;9.166;2022-09-09T14:57:00;0.07;;;0.07;;
6495;SDS011;3281;47.658;9.166;2022-09-09T14:59:27;0.10;;;0.10;;
6495;SDS011;3281;47.658;9.166;2022-09-09T15:01:54;0.10;;;0.10;;
6495;SDS011;3281;47.658;9.166;2022-09-09T15:04:21;0.17;;;0.17;;
6495;SDS011;3281;47.658;9.166;2022-09-09T15:06:47;0.10;;;0.10;;
6495;SDS011;3281;47.658;9.166;2022-09-09T15:09:18;0.10;;;0.10;;
6495;SDS011;3281;47.658;9.166;2022-09-09T15:11:45;0.20;;;0.20;;
6495;SDS011;3281;47.658;9.166;2022-09-09T15:14:12;0.20;;;0.20;;
6495;SDS011;3281;47.658;9.166;2022-09-09T15:16:39;0.00;;;0.00;;
6495;SDS011;3281;47.658;9.166;2022-09-09T15:19:06;0.00;;;0.00;;
6495;SDS011;3281;47.658;9.166;2022-09-09T15:21:34;0.10;;;0.10;;
6495;SDS011;3281;47.658;9.166;2022-09-09T15:24:03;0.03;;;0.03;;
6495;SDS011;3281;47.658;9.166;2022-09-09T15:26:31;0.00;;;0.00;;
6495;SDS011;3281;47.658;9.166;2022-09-09T15:28:58;0.00;;;0.00;;
6495;SDS011;3281;47.658;9.166;2022-09-09T15:31:27;0.10;;;0.10;;
6495;SDS011;3281;47.658;9.166;2022-09-09T15:33:56;0.10;;;0.10;;
6495;SDS011;3281;47.658;9.166;2022-09-09T15:36:26;0.20;;;0.20;;
6495;SDS011;3281;47.658;9.166;2022-09-09T15:38:54;0.23;;;0.23;;
6495;SDS011;3281;47.658;9.166;2022-09-09T15:41:21;0.10;;;0.10;;
6495;SDS011;3281;47.658;9.166;2022-09-09T15:43:51;0.73;;;0.73;;
6495;SDS011;3281;47.658;9.166;2022-09-09T15:46:23;0.23;;;0.23;;
6495;SDS011;3281;47.658;9.166;2022-09-09T15:48:52;0.23;;;0.23;;
6495;SDS011;3281;47.658;9.166;2022-09-09T15:51:20;0.20;;;0.20;;
6495;SDS011;3281;47.658;9.166;2022-09-09T15:53:48;0.13;;;0.13;;